createdAt,value
2023-04-21T00:00:26.567Z,9.00
2023-04-21T00:02:54.414Z,9.00
2023-04-21T00:05:22.546Z,9.10
2023-04-21T00:07:50.519Z,10.20
2023-04-21T00:10:18.083Z,9.10
2023-04-21T00:12:45.632Z,9.20
2023-04-21T00:15:13.443Z,9.10
2023-04-21T00:17:41.298Z,9.10
2023-04-21T00:20:10.812Z,9.10
2023-04-21T00:22:38.301Z,9.10
2023-04-21T00:25:06.456Z,9.00
2023-04-21T00:27:33.998Z,9.00
2023-04-21T00:30:01.781Z,9.00
2023-04-21T00:32:31.135Z,8.90
2023-04-21T00:34:58.680Z,8.90
2023-04-21T00:37:26.252Z,8.90
2023-04-21T00:39:53.802Z,8.90
2023-04-21T00:42:21.365Z,8.90
2023-04-21T00:44:48.867Z,8.80
2023-04-21T00:47:16.514Z,8.80
2023-04-21T00:49:44.217Z,8.80
2023-04-21T00:52:12.110Z,8.80
2023-04-21T00:54:40.087Z,8.80
2023-04-21T00:57:08.176Z,8.70
2023-04-21T00:59:36.329Z,8.60
2023-04-21T01:02:04.455Z,8.70
2023-04-21T01:04:37.195Z,8.70
2023-04-21T01:52:03.356Z,8.40
2023-04-21T01:57:01.265Z,8.30
2023-04-21T01:59:28.972Z,8.30
2023-04-21T02:01:56.783Z,8.30
2023-04-21T02:04:24.573Z,8.30
2023-04-21T02:06:52.292Z,8.30
2023-04-21T02:09:20.153Z,8.30
2023-04-21T02:11:47.852Z,8.30
2023-04-21T02:14:15.439Z,8.40
2023-04-21T02:16:43.173Z,8.30
2023-04-21T02:19:10.827Z,8.30
2023-04-21T02:21:38.416Z,8.40
2023-04-21T02:24:06.154Z,8.40
2023-04-21T02:26:33.778Z,8.40
2023-04-21T02:31:30.325Z,8.40
2023-04-21T02:33:58.924Z,8.40
2023-04-21T02:36:26.506Z,8.30
2023-04-21T02:38:58.186Z,8.30
2023-04-21T02:41:25.800Z,8.40
2023-04-21T02:43:53.316Z,8.40
2023-04-21T02:46:23.022Z,8.30
2023-04-21T02:48:51.118Z,8.40
2023-04-21T02:51:18.729Z,8.30
2023-04-21T02:53:46.250Z,8.30
2023-04-21T02:56:13.980Z,8.30
2023-04-21T02:58:41.695Z,8.30
2023-04-21T03:01:09.253Z,8.30
2023-04-21T03:03:36.890Z,8.30
2023-04-21T03:06:05.550Z,8.30
2023-04-21T03:08:33.323Z,8.30
2023-04-21T03:11:01.233Z,8.30
2023-04-21T03:13:28.815Z,8.30
2023-04-21T03:15:57.354Z,8.20
2023-04-21T03:18:24.950Z,8.20
2023-04-21T03:20:52.732Z,8.20
2023-04-21T03:23:20.939Z,8.20
2023-04-21T03:25:48.493Z,8.20
2023-04-21T03:28:16.974Z,8.20
2023-04-21T03:30:44.503Z,8.30
2023-04-21T03:33:12.286Z,8.20
2023-04-21T03:35:39.879Z,8.20
2023-04-21T03:38:08.775Z,8.20
2023-04-21T03:40:37.157Z,8.30
2023-04-21T03:43:05.025Z,8.20
2023-04-21T03:45:36.230Z,8.20
2023-04-21T03:48:04.383Z,8.20
2023-04-21T03:50:32.834Z,8.20
2023-04-21T03:53:02.244Z,8.20
2023-04-21T03:55:29.963Z,8.20
2023-04-21T03:58:03.034Z,8.20
2023-04-21T04:00:34.025Z,8.20
2023-04-21T04:03:04.715Z,8.20
2023-04-21T04:05:36.104Z,8.10
2023-04-21T04:08:03.974Z,8.10
2023-04-21T04:12:59.845Z,8.10
2023-04-21T04:15:27.821Z,8.10
2023-04-21T04:17:55.901Z,8.10
2023-04-21T04:20:23.433Z,8.10
2023-04-21T04:22:51.024Z,8.10
2023-04-21T04:25:18.801Z,8.10
2023-04-21T04:27:46.508Z,8.10
2023-04-21T04:30:14.154Z,8.10
2023-04-21T04:32:41.967Z,8.10
2023-04-21T04:35:10.425Z,8.00
2023-04-21T04:37:38.756Z,8.00
2023-04-21T04:40:10.124Z,8.00
2023-04-21T04:42:39.610Z,8.00
2023-04-21T04:45:11.489Z,8.00
2023-04-21T04:47:39.954Z,8.10
2023-04-21T04:50:07.729Z,8.10
2023-04-21T04:52:35.505Z,8.10
2023-04-21T04:57:31.665Z,8.10
2023-04-21T04:59:59.339Z,8.00
2023-04-21T05:02:27.106Z,8.10
2023-04-21T05:04:54.963Z,8.00
2023-04-21T05:07:22.679Z,8.00
2023-04-21T05:09:50.278Z,8.00
2023-04-21T05:12:17.773Z,10.50
2023-04-21T05:14:45.294Z,7.90
2023-04-21T05:17:12.844Z,7.90
2023-04-21T05:19:40.528Z,7.90
2023-04-21T05:22:08.256Z,7.30
2023-04-21T05:24:35.990Z,7.90
2023-04-21T05:27:03.653Z,7.80
2023-04-21T05:29:32.452Z,7.80
2023-04-21T05:32:00.440Z,7.80
2023-04-21T05:34:27.995Z,7.80
2023-04-21T05:36:55.827Z,7.80
2023-04-21T05:39:23.434Z,7.80
2023-04-21T05:41:51.047Z,7.80
2023-04-21T05:44:19.034Z,7.80
2023-04-21T05:46:46.937Z,7.80
2023-04-21T05:49:14.559Z,7.80
2023-04-21T05:51:42.158Z,7.70
2023-04-21T05:54:09.632Z,7.70
2023-04-21T05:56:37.245Z,7.80
2023-04-21T05:59:06.979Z,7.70
2023-04-21T06:01:37.490Z,7.70
2023-04-21T06:04:05.463Z,7.70
2023-04-21T06:06:33.788Z,7.80
2023-04-21T06:09:03.126Z,7.80
2023-04-21T06:11:31.159Z,7.80
2023-04-21T06:13:59.967Z,7.80
2023-04-21T06:16:28.155Z,7.80
2023-04-21T06:18:55.942Z,7.90
2023-04-21T06:21:23.584Z,7.90
2023-04-21T06:23:51.206Z,8.00
2023-04-21T06:26:19.011Z,8.10
2023-04-21T06:28:46.836Z,8.00
2023-04-21T06:31:15.687Z,8.10
2023-04-21T06:33:46.768Z,8.10
2023-04-21T06:36:15.143Z,9.20
2023-04-21T06:38:43.834Z,8.10
2023-04-21T06:41:11.420Z,8.20
2023-04-21T06:43:38.954Z,8.20
2023-04-21T06:46:06.510Z,8.20
2023-04-21T06:48:34.669Z,8.30
2023-04-21T06:51:05.712Z,8.30
2023-04-21T06:53:33.289Z,8.40
2023-04-21T06:56:02.324Z,8.40
2023-04-21T06:58:33.305Z,8.40
2023-04-21T07:01:02.013Z,8.50
2023-04-21T07:03:29.801Z,8.60
2023-04-21T07:05:57.434Z,8.60
2023-04-21T07:08:25.800Z,8.60
2023-04-21T07:10:53.385Z,8.70
2023-04-21T07:13:21.034Z,8.70
2023-04-21T07:15:48.628Z,11.10
2023-04-21T07:20:47.609Z,8.80
2023-04-21T07:23:15.543Z,8.80
2023-04-21T07:25:43.157Z,8.90
2023-04-21T07:28:11.137Z,8.90
2023-04-21T07:30:38.709Z,9.00
2023-04-21T07:33:06.352Z,9.00
2023-04-21T07:35:34.051Z,9.10
2023-04-21T07:38:01.624Z,9.10
2023-04-21T07:40:30.762Z,9.10
2023-04-21T07:42:58.340Z,9.20
2023-04-21T07:45:26.482Z,9.10
2023-04-21T07:47:54.318Z,9.20
2023-04-21T07:50:22.728Z,9.20
2023-04-21T07:52:50.592Z,9.20
2023-04-21T07:55:18.242Z,9.20
2023-04-21T07:57:45.932Z,9.20
2023-04-21T08:00:14.353Z,9.30
2023-04-21T08:02:42.278Z,9.30
2023-04-21T08:05:10.428Z,9.30
2023-04-21T08:07:38.266Z,9.30
2023-04-21T08:10:07.593Z,9.30
2023-04-21T08:12:35.365Z,9.40
2023-04-21T08:15:08.318Z,9.40
2023-04-21T08:17:36.021Z,9.40
2023-04-21T08:20:04.376Z,9.50
2023-04-21T08:22:32.206Z,9.50
2023-04-21T08:24:59.771Z,9.50
2023-04-21T08:27:27.404Z,9.50
2023-04-21T08:29:55.220Z,9.60
2023-04-21T08:32:24.655Z,9.60
2023-04-21T08:34:54.141Z,9.60
2023-04-21T08:37:22.167Z,9.60
2023-04-21T08:39:54.485Z,9.60
2023-04-21T08:42:22.233Z,9.60
2023-04-21T08:44:49.972Z,9.60
2023-04-21T08:47:20.793Z,9.60
2023-04-21T08:49:51.216Z,9.60
2023-04-21T08:52:19.099Z,9.60
2023-04-21T08:54:47.791Z,9.50
2023-04-21T08:57:16.374Z,9.50
2023-04-21T08:59:45.924Z,9.50
2023-04-21T09:02:16.129Z,9.50
2023-04-21T09:04:52.444Z,9.50
2023-04-21T09:07:42.248Z,9.40
2023-04-21T09:10:09.873Z,9.40
2023-04-21T09:12:40.884Z,9.30
2023-04-21T09:15:11.939Z,9.30
2023-04-21T09:17:39.712Z,9.30
2023-04-21T09:20:16.621Z,9.30
2023-04-21T09:22:45.110Z,9.30
2023-04-21T09:25:17.780Z,9.30
2023-04-21T09:27:47.269Z,9.30
2023-04-21T09:30:19.947Z,9.30
2023-04-21T09:32:47.711Z,9.30
2023-04-21T09:35:15.361Z,9.30
2023-04-21T09:37:46.126Z,9.30
2023-04-21T09:40:17.704Z,9.30
2023-04-21T09:42:45.966Z,9.30
2023-04-21T09:45:32.964Z,9.30
2023-04-21T09:48:09.794Z,9.40
2023-04-21T09:51:18.116Z,9.50
2023-04-21T09:53:28.604Z,9.50
2023-04-21T09:55:58.565Z,9.60
2023-04-21T09:58:28.721Z,9.70
2023-04-21T10:00:58.106Z,9.70
2023-04-21T10:03:28.972Z,9.70
2023-04-21T10:05:56.839Z,9.70
2023-04-21T10:08:24.485Z,9.80
2023-04-21T10:10:53.006Z,9.70
2023-04-21T10:13:21.711Z,9.80
2023-04-21T10:15:49.406Z,9.80
2023-04-21T10:18:22.566Z,9.90
2023-04-21T10:20:58.894Z,10.00
2023-04-21T10:23:46.419Z,10.00
2023-04-21T10:26:19.337Z,10.20
2023-04-21T10:28:59.388Z,10.30
2023-04-21T10:31:36.253Z,10.60
2023-04-21T10:34:09.745Z,10.70
2023-04-21T10:36:49.194Z,10.90
2023-04-21T10:39:27.629Z,11.20
2023-04-21T10:42:20.981Z,11.40
2023-04-21T10:45:02.568Z,11.30
2023-04-21T10:47:44.364Z,11.40
2023-04-21T10:50:18.897Z,11.40
2023-04-21T10:53:09.879Z,11.40
2023-04-21T10:55:38.703Z,11.90
2023-04-21T10:58:11.870Z,11.50
2023-04-21T11:00:39.649Z,11.50
2023-04-21T11:03:08.527Z,11.50
2023-04-21T11:05:41.136Z,11.40
2023-04-21T11:08:14.645Z,11.40
2023-04-21T11:10:44.587Z,11.30
2023-04-21T11:13:12.406Z,11.30
2023-04-21T11:15:40.873Z,11.30
2023-04-21T11:18:09.925Z,11.30
2023-04-21T11:20:41.901Z,11.30
2023-04-21T11:23:09.586Z,11.20
2023-04-21T11:25:37.113Z,11.20
2023-04-21T11:28:06.286Z,11.10
2023-04-21T11:30:35.249Z,11.10
2023-04-21T11:33:03.130Z,10.90
2023-04-21T11:35:32.020Z,10.60
2023-04-21T11:38:05.392Z,10.70
2023-04-21T11:40:48.256Z,10.60
2023-04-21T11:43:16.237Z,10.50
2023-04-21T11:45:43.854Z,10.60
2023-04-21T11:48:19.580Z,10.60
2023-04-21T11:50:49.087Z,10.60
2023-04-21T11:53:17.234Z,10.60
2023-04-21T11:55:46.578Z,10.60
2023-04-21T11:58:16.494Z,10.50
2023-04-21T12:00:47.311Z,10.50
2023-04-21T12:03:16.332Z,10.40
2023-04-21T12:05:44.108Z,10.40
2023-04-21T12:08:16.396Z,10.30
2023-04-21T12:10:48.834Z,10.30
2023-04-21T12:13:23.559Z,10.30
2023-04-21T12:15:51.496Z,10.40
2023-04-21T12:18:19.327Z,10.50
2023-04-21T12:20:53.658Z,10.60
2023-04-21T12:23:21.258Z,10.70
2023-04-21T12:25:48.924Z,10.80
2023-04-21T12:28:17.691Z,11.10
2023-04-21T12:30:45.483Z,11.80
2023-04-21T12:33:13.437Z,13.00
2023-04-21T12:35:41.174Z,13.00
2023-04-21T12:38:08.723Z,13.50
2023-04-21T12:40:36.264Z,13.80
2023-04-21T12:43:03.898Z,14.10
2023-04-21T12:45:32.694Z,14.60
2023-04-21T12:48:01.014Z,14.80
2023-04-21T12:50:29.058Z,15.00
2023-04-21T12:52:56.798Z,15.10
2023-04-21T12:55:24.481Z,15.30
2023-04-21T12:57:52.902Z,15.50
2023-04-21T13:00:20.623Z,15.60
2023-04-21T13:02:48.409Z,15.40
2023-04-21T13:05:16.073Z,15.10
2023-04-21T13:07:43.858Z,14.70
2023-04-21T13:10:11.986Z,14.40
2023-04-21T13:12:41.466Z,14.50
2023-04-21T13:15:09.744Z,14.70
2023-04-21T13:17:37.249Z,14.70
2023-04-21T13:20:05.325Z,15.00
2023-04-21T13:22:33.995Z,15.10
2023-04-21T13:25:01.681Z,15.10
2023-04-21T13:27:29.324Z,14.90
2023-04-21T13:29:57.777Z,14.90
2023-04-21T13:32:25.419Z,14.70
2023-04-21T13:34:54.686Z,14.80
2023-04-21T13:37:22.415Z,14.80
2023-04-21T13:39:50.063Z,14.80
2023-04-21T13:42:31.673Z,14.80
2023-04-21T13:44:59.645Z,15.00
2023-04-21T13:47:32.872Z,15.20
2023-04-21T13:50:01.399Z,15.60
2023-04-21T13:52:29.047Z,15.80
2023-04-21T13:54:56.730Z,15.80
2023-04-21T13:57:25.429Z,15.60
2023-04-21T13:59:54.228Z,15.40
2023-04-21T14:02:25.912Z,15.10
2023-04-21T14:04:54.444Z,14.80
2023-04-21T14:07:23.961Z,15.10
2023-04-21T14:09:52.688Z,15.60
2023-04-21T14:12:20.283Z,16.00
2023-04-21T14:14:48.354Z,16.20
2023-04-21T14:17:19.397Z,16.10
2023-04-21T14:19:47.372Z,15.50
2023-04-21T14:22:14.959Z,15.10
2023-04-21T14:24:42.631Z,15.00
2023-04-21T14:27:10.802Z,14.70
2023-04-21T14:29:38.498Z,14.80
2023-04-21T14:32:06.153Z,14.90
2023-04-21T14:34:33.841Z,15.00
2023-04-21T14:37:01.558Z,15.00
2023-04-21T14:39:29.137Z,14.60
2023-04-21T14:41:57.011Z,14.60
2023-04-21T14:44:24.810Z,14.50
2023-04-21T14:47:05.407Z,14.50
2023-04-21T14:49:38.513Z,14.50
2023-04-21T14:52:07.133Z,14.50
2023-04-21T14:54:34.878Z,14.40
2023-04-21T14:57:17.973Z,14.20
2023-04-21T14:59:47.691Z,13.90
2023-04-21T15:02:15.694Z,13.60
2023-04-21T15:04:43.576Z,13.50
2023-04-21T15:07:11.419Z,13.30
2023-04-21T15:09:45.786Z,13.20
2023-04-21T15:12:13.776Z,13.10
2023-04-21T15:14:41.443Z,13.10
2023-04-21T15:17:09.466Z,13.00
2023-04-21T15:19:37.333Z,13.00
2023-04-21T15:22:05.191Z,12.90
2023-04-21T15:24:35.870Z,12.90
2023-04-21T15:27:04.104Z,12.90
2023-04-21T15:29:36.273Z,12.70
2023-04-21T15:32:04.345Z,12.70
2023-04-21T15:34:31.992Z,12.50
2023-04-21T15:36:59.668Z,12.40
2023-04-21T15:39:27.274Z,12.40
2023-04-21T15:41:55.953Z,12.40
2023-04-21T15:44:23.589Z,12.20
2023-04-21T15:46:51.301Z,12.20
2023-04-21T15:49:19.105Z,12.10
2023-04-21T15:51:47.594Z,12.00
2023-04-21T15:54:16.053Z,12.00
2023-04-21T15:59:11.905Z,12.10
2023-04-21T16:01:39.847Z,12.10
2023-04-21T16:04:07.866Z,12.10
2023-04-21T16:09:03.654Z,12.30
2023-04-21T16:11:33.268Z,12.30
2023-04-21T16:14:00.961Z,12.30
2023-04-21T16:16:31.750Z,12.20
2023-04-21T16:19:00.164Z,12.20
2023-04-21T16:21:27.904Z,12.20
2023-04-21T16:23:56.456Z,12.20
2023-04-21T16:26:24.169Z,12.20
2023-04-21T16:28:54.337Z,12.30
2023-04-21T16:31:22.243Z,12.40
2023-04-21T16:33:50.748Z,12.40
2023-04-21T16:36:18.630Z,12.40
2023-04-21T16:38:46.196Z,12.40
2023-04-21T16:41:14.304Z,12.50
2023-04-21T16:43:43.266Z,12.50
2023-04-21T16:46:11.488Z,12.60
2023-04-21T16:48:39.081Z,12.60
2023-04-21T16:51:07.421Z,12.60
2023-04-21T16:53:35.805Z,12.70
2023-04-21T16:56:04.242Z,12.70
2023-04-21T16:58:31.842Z,12.90
2023-04-21T17:00:59.908Z,13.00
2023-04-21T17:03:29.279Z,13.30
2023-04-21T17:05:57.120Z,13.40
2023-04-21T17:08:25.133Z,13.60
2023-04-21T17:10:52.702Z,13.60
2023-04-21T17:13:20.290Z,13.50
2023-04-21T17:15:48.128Z,13.50
2023-04-21T17:18:15.860Z,13.50
2023-04-21T17:20:43.673Z,13.30
2023-04-21T17:23:11.173Z,13.20
2023-04-21T17:25:39.045Z,13.10
2023-04-21T17:28:06.683Z,13.00
2023-04-21T17:30:35.888Z,12.80
2023-04-21T17:33:15.511Z,12.60
2023-04-21T17:35:59.997Z,12.70
2023-04-21T17:38:30.496Z,12.60
2023-04-21T17:40:59.371Z,12.60
2023-04-21T17:43:26.920Z,12.60
2023-04-21T17:45:54.526Z,12.60
2023-04-21T17:48:22.236Z,12.60
2023-04-21T17:50:49.807Z,12.70
2023-04-21T17:53:18.068Z,12.70
2023-04-21T17:55:45.675Z,12.60
2023-04-21T17:58:16.547Z,12.70
2023-04-21T18:00:46.469Z,12.50
2023-04-21T18:03:14.476Z,12.60
2023-04-21T18:05:42.271Z,12.50
2023-04-21T18:08:09.896Z,12.40
2023-04-21T18:10:42.766Z,12.30
2023-04-21T18:13:10.518Z,12.20
2023-04-21T18:15:38.175Z,12.20
2023-04-21T18:18:06.492Z,12.20
2023-04-21T18:20:34.172Z,12.10
2023-04-21T18:23:02.033Z,12.00
2023-04-21T18:25:41.254Z,12.00
2023-04-21T18:28:11.585Z,11.70
2023-04-21T18:30:40.034Z,11.70
2023-04-21T18:33:09.042Z,11.70
2023-04-21T18:35:36.881Z,11.60
2023-04-21T18:38:04.750Z,11.60
2023-04-21T18:40:33.570Z,11.60
2023-04-21T18:43:01.640Z,11.50
2023-04-21T18:45:34.819Z,11.50
2023-04-21T18:48:02.630Z,11.50
2023-04-21T18:50:33.855Z,11.40
2023-04-21T18:53:07.444Z,11.30
2023-04-21T18:55:36.339Z,11.30
2023-04-21T18:58:04.200Z,11.30
2023-04-21T19:00:32.372Z,11.20
2023-04-21T19:03:03.286Z,11.30
2023-04-21T19:05:31.969Z,11.20
2023-04-21T19:07:59.842Z,11.20
2023-04-21T19:10:28.826Z,11.20
2023-04-21T19:12:56.435Z,11.10
2023-04-21T19:15:24.041Z,11.10
2023-04-21T19:17:51.845Z,11.10
2023-04-21T19:20:19.809Z,11.00
2023-04-21T19:22:47.984Z,11.00
2023-04-21T19:25:17.622Z,11.00
2023-04-21T19:27:46.710Z,11.00
2023-04-21T19:30:14.736Z,11.00
2023-04-21T19:32:42.763Z,10.80
2023-04-21T19:35:11.289Z,10.80
2023-04-21T19:37:39.193Z,10.80
2023-04-21T19:40:09.995Z,10.70
2023-04-21T19:42:39.452Z,10.60
2023-04-21T19:45:09.496Z,10.50
2023-04-21T19:47:37.461Z,10.40
2023-04-21T19:50:06.480Z,10.30
2023-04-21T19:52:34.128Z,10.20
2023-04-21T19:55:01.678Z,10.20
2023-04-21T19:57:29.733Z,10.20
2023-04-21T19:59:57.341Z,10.20
2023-04-21T20:02:24.922Z,10.30
2023-04-21T20:04:53.662Z,10.20
2023-04-21T20:07:21.515Z,10.30
2023-04-21T20:09:49.138Z,10.20
2023-04-21T20:12:16.725Z,10.20
2023-04-21T20:14:44.640Z,10.20
2023-04-21T20:17:12.528Z,10.20
2023-04-21T20:19:40.637Z,10.10
2023-04-21T20:22:08.379Z,10.00
2023-04-21T20:24:35.952Z,10.00
2023-04-21T20:27:04.851Z,9.90
2023-04-21T20:29:34.444Z,9.80
2023-04-21T20:32:02.656Z,9.70
2023-04-21T20:34:30.728Z,9.60
2023-04-21T20:36:59.623Z,9.50
2023-04-21T20:39:27.323Z,10.00
2023-04-21T20:42:08.907Z,9.40
2023-04-21T20:44:41.313Z,9.30
2023-04-21T20:47:09.930Z,9.30
2023-04-21T20:49:38.009Z,9.20
2023-04-21T20:52:05.834Z,9.20
2023-04-21T20:54:34.677Z,9.20
2023-04-21T20:57:04.035Z,9.10
2023-04-21T20:59:31.695Z,9.10
2023-04-21T21:04:27.442Z,9.00
2023-04-21T21:06:57.437Z,9.00
2023-04-21T21:09:24.906Z,8.90
2023-04-21T21:11:52.426Z,8.90
2023-04-21T21:14:20.452Z,8.90
2023-04-21T21:16:54.491Z,8.80
2023-04-21T21:19:22.310Z,8.80
2023-04-21T21:21:49.874Z,8.80
2023-04-21T21:24:17.443Z,8.70
2023-04-21T21:26:45.160Z,8.70
2023-04-21T21:29:12.832Z,8.70
2023-04-21T21:31:40.461Z,8.70
2023-04-21T21:34:08.114Z,8.70
2023-04-21T21:36:36.142Z,8.70
2023-04-21T21:39:04.181Z,8.60
2023-04-21T21:41:31.929Z,8.60
2023-04-21T21:43:59.448Z,8.60
2023-04-21T21:46:27.255Z,8.60
2023-04-21T21:48:54.926Z,8.60
2023-04-21T21:51:23.347Z,8.50
2023-04-21T21:53:53.678Z,8.60
2023-04-21T21:56:22.036Z,8.50
2023-04-21T21:58:49.603Z,8.50
2023-04-21T22:01:18.335Z,8.50
2023-04-21T22:03:47.285Z,8.50
2023-04-21T22:06:16.955Z,8.40
2023-04-21T22:08:45.679Z,8.40
2023-04-21T22:11:13.310Z,8.40
2023-04-21T22:13:40.952Z,8.40
2023-04-21T22:16:08.709Z,8.30
2023-04-21T22:18:36.599Z,8.30
2023-04-21T22:21:04.428Z,8.30
2023-04-21T22:23:32.563Z,8.20
2023-04-21T22:26:00.174Z,8.10
2023-04-21T22:28:27.964Z,8.10
2023-04-21T22:30:56.653Z,8.10
2023-04-21T22:33:24.367Z,8.10
2023-04-21T22:35:52.526Z,8.00
2023-04-21T22:38:20.219Z,8.00
2023-04-21T22:40:47.989Z,8.00
2023-04-21T22:43:15.642Z,7.90
2023-04-21T22:45:43.205Z,7.80
2023-04-21T22:48:11.074Z,7.80
2023-04-21T22:50:39.110Z,7.70
2023-04-21T22:53:07.706Z,7.70
2023-04-21T22:55:35.654Z,7.70
2023-04-21T22:58:04.194Z,7.60
2023-04-21T23:00:31.826Z,7.60
2023-04-21T23:02:59.543Z,7.60
2023-04-21T23:05:27.540Z,7.60
2023-04-21T23:07:55.658Z,7.60
2023-04-21T23:10:23.674Z,7.50
2023-04-21T23:12:51.319Z,7.50
2023-04-21T23:15:20.535Z,7.50
2023-04-21T23:17:51.372Z,7.50
2023-04-21T23:20:19.172Z,7.50
2023-04-21T23:22:46.686Z,7.50
2023-04-21T23:25:14.367Z,7.50
2023-04-21T23:27:42.015Z,7.40
2023-04-21T23:30:10.174Z,7.40
2023-04-21T23:32:38.866Z,7.40
2023-04-21T23:35:07.041Z,7.40
2023-04-21T23:37:34.729Z,7.40
2023-04-21T23:40:09.225Z,7.30
2023-04-21T23:42:38.467Z,7.30
2023-04-21T23:45:06.798Z,7.20
2023-04-21T23:47:34.683Z,7.20
2023-04-21T23:50:03.101Z,7.10
2023-04-21T23:52:33.946Z,7.10
2023-04-21T23:57:30.083Z,7.00
2023-04-21T23:59:58.204Z,6.90
